MSC Don Giovanni — 3FIV6 — position and weather

sailwx.info

Track history (hours):
 
Tides and Currents Weather Stations Pressure Air Temp Water Temp Dewpoint Dewpoint Depression Visibility Wind Speed Wind Dir Waves Ship Positions

MSC Don Giovanni

Last reported at 2018-Feb-24 06:30 UTC. Time now 2018-Feb-24 06:48 UTC.
Position N 38°27' E 015°47'.

Length 203 m; draft 9 m.

Type: Ship (hazmat cat A). MMSI: 356579000.

Date/timePositionNaut miles runAvg speedWind from/ knotsBaromVisibWave heightAir tempDewpointWater temp
2018-Feb-24 06:30N 38°27' E 015°47'1 1.7
2018-Feb-24 06:00N 38°28' E 015°47'1 1.8
2018-Feb-24 05:29N 38°28' E 015°46'1 1.8
2018-Feb-24 05:00N 38°28' E 015°45'1 2.0
2018-Feb-24 04:28N 38°29' E 015°43'1 2.0
2018-Feb-24 04:00N 38°29' E 015°42'1 2.2
2018-Feb-24 03:30N 38°29' E 015°41'1 1.9
2018-Feb-24 03:00N 38°30' E 015°40'1 1.2
2018-Feb-24 02:30N 38°30' E 015°41'1 2.5
2018-Feb-24 02:00N 38°31' E 015°42'1 1.9
2018-Feb-24 01:29N 38°31' E 015°41'1 1.9
2018-Feb-24 01:00N 38°31' E 015°39'1 2.0
2018-Feb-24 00:30N 38°30' E 015°38'1 2.3
2018-Feb-23 23:58N 38°30' E 015°37'1 2.6
2018-Feb-23 23:30N 38°30' E 015°35'2 4.3
2018-Feb-23 22:58N 38°32' E 015°37'3 7.0
2018-Feb-23 22:30N 38°34' E 015°40'2 3.1
2018-Feb-23 21:59N 38°35' E 015°41'1 2.0
2018-Feb-23 21:30N 38°35' E 015°40'1 2.0
2018-Feb-23 20:56N 38°35' E 015°39'1 1.9
2018-Feb-23 20:30N 38°34' E 015°38'1 1.5
2018-Feb-23 20:00N 38°34' E 015°37'1 1.3
2018-Feb-23 19:28N 38°34' E 015°36'1 1.4
2018-Feb-23 19:00N 38°33' E 015°36'1 1.3
2018-Feb-23 18:30N 38°32' E 015°36'1 1.1
2018-Feb-23 17:59N 38°32' E 015°35'1 1.3
2018-Feb-23 17:28N 38°32' E 015°34'1 1.1
2018-Feb-23 17:00N 38°31' E 015°34'0 0.9
2018-Feb-23 16:30N 38°31' E 015°34'0 0.8
2018-Feb-23 16:00N 38°31' E 015°34'1 1.1
2018-Feb-23 15:28N 38°30' E 015°34'1 1.2
2018-Feb-23 15:00N 38°29' E 015°34'1 1.0
2018-Feb-23 14:28N 38°29' E 015°34'0 0.7
2018-Feb-23 14:00N 38°29' E 015°34'0 0.6
2018-Feb-23 13:29N 38°28' E 015°34'0 0.6
2018-Feb-23 13:00N 38°28' E 015°34'0 0.5
2018-Feb-23 12:25N 38°28' E 015°34'1 1.2
2018-Feb-23 11:55N 38°28' E 015°34'1 1.3
2018-Feb-23 11:25N 38°28' E 015°35'1 1.2
2018-Feb-23 10:56N 38°29' E 015°36'1 1.1
2018-Feb-23 10:29N 38°29' E 015°36'0 0.8
2018-Feb-23 09:59N 38°29' E 015°37'0 0.7
2018-Feb-23 09:27N 38°29' E 015°37'0 1.0
2018-Feb-23 09:00N 38°29' E 015°38'0 0.9
2018-Feb-23 08:30N 38°29' E 015°38'1 1.1
2018-Feb-23 07:51N 38°29' E 015°39'0 1.2
2018-Feb-23 07:30N 38°29' E 015°40'1 2.2
2018-Feb-23 07:00N 38°28' E 015°40'4 7.9
2018-Feb-23 06:30N 38°24' E 015°43'5 9.1
2018-Feb-23 06:00N 38°20' E 015°46'711.1
2018-Feb-23 05:25N 38°15' E 015°41'511.4
2018-Feb-23 05:00N 38°12' E 015°37'5 9.9
2018-Feb-23 04:30N 38°07' E 015°36'4 8.9
2018-Feb-23 04:00N 38°02' E 015°36'5 9.3
2018-Feb-23 03:29N 37°57' E 015°36'10 8.1
2018-Feb-23 02:14N 37°49' E 015°43'312.1
2018-Feb-23 02:00N 37°48' E 015°46'714.0
2018-Feb-23 01:30N 37°46' E 015°55'714.3
2018-Feb-23 01:00N 37°44' E 016°03'714.1
2018-Feb-23 00:30N 37°42' E 016°12'35811.6
2018-Feb-21 17:30N 37°14' E 023°42'813.2
2018-Feb-21 16:52N 37°22' E 023°43'513.2
2018-Feb-21 16:30N 37°27' E 023°44'713.3
2018-Feb-21 16:00N 37°34' E 023°45'612.8
2018-Feb-21 15:30N 37°40' E 023°42'713.5
2018-Feb-21 15:00N 37°46' E 023°39'613.0
2018-Feb-21 14:30N 37°52' E 023°37'510.0
2018-Feb-21 14:01N 37°57' E 023°36'0 0.9
2018-Feb-21 13:30N 37°57' E 023°36'0 0.0
2018-Feb-21 13:00N 37°57' E 023°36'0 0.0
2018-Feb-21 12:30N 37°57' E 023°36'0 0.0
2018-Feb-21 12:00N 37°57' E 023°36'0 0.0
2018-Feb-21 11:30N 37°57' E 023°36'0 0.0
2018-Feb-21 11:00N 37°57' E 023°36'0 0.0
2018-Feb-21 10:30N 37°57' E 023°36'0 0.0
2018-Feb-21 10:00N 37°57' E 023°36'0 0.0
2018-Feb-21 09:30N 37°57' E 023°36'0 0.0
2018-Feb-21 09:00N 37°57' E 023°36'0 0.0
2018-Feb-21 08:30N 37°57' E 023°36'0 0.0
2018-Feb-21 08:01N 37°57' E 023°36'0 0.0
2018-Feb-21 07:30N 37°57' E 023°36'2 4.3
2018-Feb-21 07:00N 37°55' E 023°36'3 6.2
2018-Feb-21 06:30N 37°52' E 023°38'3 5.4
2018-Feb-21 06:00N 37°50' E 023°40'5 9.5
2018-Feb-21 05:30N 37°46' E 023°42'5 9.5
2018-Feb-21 05:00N 37°42' E 023°45'510.6
2018-Feb-21 04:30N 37°37' E 023°48'612.2
2018-Feb-21 04:00N 37°36' E 023°55'913.3
2018-Feb-21 03:20N 37°36' E 024°07'1013.3
2018-Feb-21 02:34N 37°42' E 024°17'113.4
2018-Feb-21 02:30N 37°43' E 024°18'813.2
2018-Feb-21 01:51N 37°48' E 024°26'  
Track history (hours):
 
Tides and Currents Weather Stations Pressure Air Temp Water Temp Dewpoint Dewpoint Depression Visibility Wind Speed Wind Dir Waves Ship Positions

MSC Don Giovanni

Last reported at 2018-Feb-24 06:30 UTC. Time now 2018-Feb-24 06:48 UTC.
Position N 38°27' E 015°47'.

Length 203 m; draft 9 m.

Type: Ship (hazmat cat A). MMSI: 356579000.

Date/timePositionNaut miles runAvg speedWind from/ knotsBaromVisibWave heightAir tempDewpointWater temp
2018-Feb-24 06:30N 38°27' E 015°47'1 1.7
2018-Feb-24 06:00N 38°28' E 015°47'1 1.8
2018-Feb-24 05:29N 38°28' E 015°46'1 1.8
2018-Feb-24 05:00N 38°28' E 015°45'1 2.0
2018-Feb-24 04:28N 38°29' E 015°43'1 2.0
2018-Feb-24 04:00N 38°29' E 015°42'1 2.2
2018-Feb-24 03:30N 38°29' E 015°41'1 1.9
2018-Feb-24 03:00N 38°30' E 015°40'1 1.2
2018-Feb-24 02:30N 38°30' E 015°41'1 2.5
2018-Feb-24 02:00N 38°31' E 015°42'1 1.9
2018-Feb-24 01:29N 38°31' E 015°41'1 1.9
2018-Feb-24 01:00N 38°31' E 015°39'1 2.0
2018-Feb-24 00:30N 38°30' E 015°38'1 2.3
2018-Feb-23 23:58N 38°30' E 015°37'1 2.6
2018-Feb-23 23:30N 38°30' E 015°35'2 4.3
2018-Feb-23 22:58N 38°32' E 015°37'3 7.0
2018-Feb-23 22:30N 38°34' E 015°40'2 3.1
2018-Feb-23 21:59N 38°35' E 015°41'1 2.0
2018-Feb-23 21:30N 38°35' E 015°40'1 2.0
2018-Feb-23 20:56N 38°35' E 015°39'1 1.9
2018-Feb-23 20:30N 38°34' E 015°38'1 1.5
2018-Feb-23 20:00N 38°34' E 015°37'1 1.3
2018-Feb-23 19:28N 38°34' E 015°36'1 1.4
2018-Feb-23 19:00N 38°33' E 015°36'1 1.3
2018-Feb-23 18:30N 38°32' E 015°36'1 1.1
2018-Feb-23 17:59N 38°32' E 015°35'1 1.3
2018-Feb-23 17:28N 38°32' E 015°34'1 1.1
2018-Feb-23 17:00N 38°31' E 015°34'0 0.9
2018-Feb-23 16:30N 38°31' E 015°34'0 0.8
2018-Feb-23 16:00N 38°31' E 015°34'1 1.1
2018-Feb-23 15:28N 38°30' E 015°34'1 1.2
2018-Feb-23 15:00N 38°29' E 015°34'1 1.0
2018-Feb-23 14:28N 38°29' E 015°34'0 0.7
2018-Feb-23 14:00N 38°29' E 015°34'0 0.6
2018-Feb-23 13:29N 38°28' E 015°34'0 0.6
2018-Feb-23 13:00N 38°28' E 015°34'0 0.5
2018-Feb-23 12:25N 38°28' E 015°34'1 1.2
2018-Feb-23 11:55N 38°28' E 015°34'1 1.3
2018-Feb-23 11:25N 38°28' E 015°35'1 1.2
2018-Feb-23 10:56N 38°29' E 015°36'1 1.1
2018-Feb-23 10:29N 38°29' E 015°36'0 0.8
2018-Feb-23 09:59N 38°29' E 015°37'0 0.7
2018-Feb-23 09:27N 38°29' E 015°37'0 1.0
2018-Feb-23 09:00N 38°29' E 015°38'0 0.9
2018-Feb-23 08:30N 38°29' E 015°38'1 1.1
2018-Feb-23 07:51N 38°29' E 015°39'0 1.2
2018-Feb-23 07:30N 38°29' E 015°40'1 2.2
2018-Feb-23 07:00N 38°28' E 015°40'4 7.9
2018-Feb-23 06:30N 38°24' E 015°43'5 9.1
2018-Feb-23 06:00N 38°20' E 015°46'711.1
2018-Feb-23 05:25N 38°15' E 015°41'511.4
2018-Feb-23 05:00N 38°12' E 015°37'5 9.9
2018-Feb-23 04:30N 38°07' E 015°36'4 8.9
2018-Feb-23 04:00N 38°02' E 015°36'5 9.3
2018-Feb-23 03:29N 37°57' E 015°36'10 8.1
2018-Feb-23 02:14N 37°49' E 015°43'312.1
2018-Feb-23 02:00N 37°48' E 015°46'714.0
2018-Feb-23 01:30N 37°46' E 015°55'714.3
2018-Feb-23 01:00N 37°44' E 016°03'714.1
2018-Feb-23 00:30N 37°42' E 016°12'35811.6
2018-Feb-21 17:30N 37°14' E 023°42'813.2
2018-Feb-21 16:52N 37°22' E 023°43'513.2
2018-Feb-21 16:30N 37°27' E 023°44'713.3
2018-Feb-21 16:00N 37°34' E 023°45'612.8
2018-Feb-21 15:30N 37°40' E 023°42'713.5
2018-Feb-21 15:00N 37°46' E 023°39'613.0
2018-Feb-21 14:30N 37°52' E 023°37'510.0
2018-Feb-21 14:01N 37°57' E 023°36'0 0.9
2018-Feb-21 13:30N 37°57' E 023°36'0 0.0
2018-Feb-21 13:00N 37°57' E 023°36'0 0.0
2018-Feb-21 12:30N 37°57' E 023°36'0 0.0
2018-Feb-21 12:00N 37°57' E 023°36'0 0.0
2018-Feb-21 11:30N 37°57' E 023°36'0 0.0
2018-Feb-21 11:00N 37°57' E 023°36'0 0.0
2018-Feb-21 10:30N 37°57' E 023°36'0 0.0
2018-Feb-21 10:00N 37°57' E 023°36'0 0.0
2018-Feb-21 09:30N 37°57' E 023°36'0 0.0
2018-Feb-21 09:00N 37°57' E 023°36'0 0.0
2018-Feb-21 08:30N 37°57' E 023°36'0 0.0
2018-Feb-21 08:01N 37°57' E 023°36'0 0.0
2018-Feb-21 07:30N 37°57' E 023°36'2 4.3
2018-Feb-21 07:00N 37°55' E 023°36'3 6.2
2018-Feb-21 06:30N 37°52' E 023°38'3 5.4
2018-Feb-21 06:00N 37°50' E 023°40'5 9.5
2018-Feb-21 05:30N 37°46' E 023°42'5 9.5
2018-Feb-21 05:00N 37°42' E 023°45'510.6
2018-Feb-21 04:30N 37°37' E 023°48'612.2
2018-Feb-21 04:00N 37°36' E 023°55'913.3
2018-Feb-21 03:20N 37°36' E 024°07'1013.3
2018-Feb-21 02:34N 37°42' E 024°17'113.4
2018-Feb-21 02:30N 37°43' E 024°18'813.2
2018-Feb-21 01:51N 37°48' E 024°26'  

Dump ship's entire track history